sensor_id;sensor_type;location;lat;lon;timestamp;pressure;altitude;pressure_sealevel;temperature;humidity
47710;BME280;33473;51.640;5.892;2022-09-09T00:08:14;100700;;;19.4;58.0
47710;BME280;33473;51.640;5.892;2022-09-09T00:21:34;100700;;;19.3;58.0
47710;BME280;33473;51.640;5.892;2022-09-09T00:34:54;100600;;;19.3;59.0
47710;BME280;33473;51.640;5.892;2022-09-09T00:48:14;100600;;;19.3;58.0
47710;BME280;33473;51.640;5.892;2022-09-09T01:01:34;100600;;;19.2;58.0
47710;BME280;33473;51.640;5.892;2022-09-09T01:14:54;100600;;;19.1;59.0
47710;BME280;33473;51.640;5.892;2022-09-09T01:28:13;100600;;;19.0;59.0
47710;BME280;33473;51.640;5.892;2022-09-09T01:41:33;100600;;;19.0;59.0
47710;BME280;33473;51.640;5.892;2022-09-09T01:54:53;100600;;;18.9;59.0
47710;BME280;33473;51.640;5.892;2022-09-09T02:08:13;100600;;;18.9;59.0
47710;BME280;33473;51.640;5.892;2022-09-09T02:21:33;100600;;;18.9;59.0
47710;BME280;33473;51.640;5.892;2022-09-09T02:34:52;100600;;;18.9;59.0
47710;BME280;33473;51.640;5.892;2022-09-09T02:48:12;100600;;;18.9;59.0
47710;BME280;33473;51.640;5.892;2022-09-09T03:01:32;100600;;;18.8;59.0
47710;BME280;33473;51.640;5.892;2022-09-09T03:14:52;100600;;;18.8;59.0
47710;BME280;33473;51.640;5.892;2022-09-09T03:28:12;100600;;;18.8;59.0
47710;BME280;33473;51.640;5.892;2022-09-09T03:41:32;100600;;;18.9;60.0
47710;BME280;33473;51.640;5.892;2022-09-09T03:54:51;100600;;;19.1;61.0
47710;BME280;33473;51.640;5.892;2022-09-09T04:08:11;100600;;;19.3;61.0
47710;BME280;33473;51.640;5.892;2022-09-09T04:21:31;100600;;;19.5;61.0
47710;BME280;33473;51.640;5.892;2022-09-09T04:34:51;100600;;;19.7;61.0
47710;BME280;33473;51.640;5.892;2022-09-09T04:48:11;100600;;;19.8;61.0
47710;BME280;33473;51.640;5.892;2022-09-09T05:01:31;100600;;;19.9;60.0
47710;BME280;33473;51.640;5.892;2022-09-09T05:14:50;100600;;;20.0;60.0
47710;BME280;33473;51.640;5.892;2022-09-09T05:28:10;100600;;;20.2;60.0
47710;BME280;33473;51.640;5.892;2022-09-09T05:41:30;100600;;;20.1;60.0
47710;BME280;33473;51.640;5.892;2022-09-09T05:54:50;100600;;;20.2;60.0
47710;BME280;33473;51.640;5.892;2022-09-09T06:08:10;100600;;;20.3;60.0
47710;BME280;33473;51.640;5.892;2022-09-09T06:21:30;100600;;;20.2;60.0
47710;BME280;33473;51.640;5.892;2022-09-09T06:34:50;100600;;;20.5;60.0
47710;BME280;33473;51.640;5.892;2022-09-09T06:48:09;100600;;;20.6;60.0
47710;BME280;33473;51.640;5.892;2022-09-09T07:01:29;100600;;;20.8;59.0
47710;BME280;33473;51.640;5.892;2022-09-09T07:14:49;100600;;;20.9;59.0
47710;BME280;33473;51.640;5.892;2022-09-09T07:28:09;100600;;;21.0;60.0
47710;BME280;33473;51.640;5.892;2022-09-09T07:41:29;100600;;;21.5;60.0
47710;BME280;33473;51.640;5.892;2022-09-09T07:54:49;100600;;;21.8;57.0
47710;BME280;33473;51.640;5.892;2022-09-09T08:08:09;100600;;;21.8;56.0
47710;BME280;33473;51.640;5.892;2022-09-09T08:21:28;100600;;;22.1;55.0
47710;BME280;33473;51.640;5.892;2022-09-09T08:34:48;100600;;;22.6;56.0
47710;BME280;33473;51.640;5.892;2022-09-09T08:48:08;100600;;;23.1;54.0
47710;BME280;33473;51.640;5.892;2022-09-09T09:01:28;100600;;;23.1;52.0
47710;BME280;33473;51.640;5.892;2022-09-09T09:14:48;100600;;;23.1;52.0
47710;BME280;33473;51.640;5.892;2022-09-09T09:28:08;100600;;;23.6;51.0
47710;BME280;33473;51.640;5.892;2022-09-09T09:41:28;100600;;;23.6;49.0
47710;BME280;33473;51.640;5.892;2022-09-09T09:54:47;100600;;;23.5;50.0
47710;BME280;33473;51.640;5.892;2022-09-09T10:08:07;100600;;;23.4;50.0
47710;BME280;33473;51.640;5.892;2022-09-09T10:21:27;100600;;;23.4;49.0
47710;BME280;33473;51.640;5.892;2022-09-09T10:34:47;100600;;;23.5;50.0
47710;BME280;33473;51.640;5.892;2022-09-09T10:48:07;100600;;;23.8;48.0
47710;BME280;33473;51.640;5.892;2022-09-09T11:01:27;100600;;;23.8;48.0
47710;BME280;33473;51.640;5.892;2022-09-09T11:14:46;100600;;;23.4;50.0
47710;BME280;33473;51.640;5.892;2022-09-09T11:28:06;100600;;;23.0;53.0
47710;BME280;33473;51.640;5.892;2022-09-09T11:41:29;100700;;;22.6;55.0
47710;BME280;33473;51.640;5.892;2022-09-09T11:54:48;100700;;;22.3;56.0
47710;BME280;33473;51.640;5.892;2022-09-09T12:08:08;100600;;;22.6;60.0
47710;BME280;33473;51.640;5.892;2022-09-09T12:21:28;100600;;;23.1;59.0
47710;BME280;33473;51.640;5.892;2022-09-09T12:34:48;100600;;;22.9;57.0
47710;BME280;33473;51.640;5.892;2022-09-09T12:48:10;100600;;;23.2;59.0
47710;BME280;33473;51.640;5.892;2022-09-09T13:01:30;100600;;;23.8;57.0
47710;BME280;33473;51.640;5.892;2022-09-09T13:14:50;100600;;;24.0;55.0
47710;BME280;33473;51.640;5.892;2022-09-09T13:28:10;100600;;;23.8;54.0
47710;BME280;33473;51.640;5.892;2022-09-09T13:41:30;100600;;;23.5;54.0
47710;BME280;33473;51.640;5.892;2022-09-09T13:54:49;100600;;;23.4;54.0
47710;BME280;33473;51.640;5.892;2022-09-09T14:08:09;100600;;;23.6;54.0
47710;BME280;33473;51.640;5.892;2022-09-09T14:21:29;100600;;;23.6;52.0
47710;BME280;33473;51.640;5.892;2022-09-09T14:34:49;100600;;;23.8;52.0
47710;BME280;33473;51.640;5.892;2022-09-09T14:48:09;100600;;;24.4;50.0
47710;BME280;33473;51.640;5.892;2022-09-09T15:01:28;100600;;;24.5;50.0
47710;BME280;33473;51.640;5.892;2022-09-09T15:14:48;100500;;;25.2;49.0
47710;BME280;33473;51.640;5.892;2022-09-09T15:28:08;100500;;;25.1;48.0
47710;BME280;33473;51.640;5.892;2022-09-09T15:41:28;100600;;;24.9;49.0
47710;BME280;33473;51.640;5.892;2022-09-09T15:54:48;100600;;;24.6;49.0
47710;BME280;33473;51.640;5.892;2022-09-09T16:08:08;100600;;;23.5;47.0
47710;BME280;33473;51.640;5.892;2022-09-09T16:21:27;100600;;;22.4;50.0
47710;BME280;33473;51.640;5.892;2022-09-09T16:34:47;100600;;;21.7;53.0
47710;BME280;33473;51.640;5.892;2022-09-09T16:48:07;100600;;;21.3;55.0
47710;BME280;33473;51.640;5.892;2022-09-09T17:01:27;100600;;;21.1;57.0
47710;BME280;33473;51.640;5.892;2022-09-09T17:14:47;100600;;;21.0;58.0
47710;BME280;33473;51.640;5.892;2022-09-09T17:28:06;100600;;;20.9;58.0
47710;BME280;33473;51.640;5.892;2022-09-09T17:41:26;100600;;;20.9;59.0
47710;BME280;33473;51.640;5.892;2022-09-09T17:54:46;100700;;;20.9;59.0
47710;BME280;33473;51.640;5.892;2022-09-09T18:08:06;100700;;;20.9;59.0
47710;BME280;33473;51.640;5.892;2022-09-09T18:21:26;100700;;;20.8;58.0
47710;BME280;33473;51.640;5.892;2022-09-09T18:34:46;100700;;;20.7;58.0
47710;BME280;33473;51.640;5.892;2022-09-09T18:48:05;100700;;;20.5;58.0
47710;BME280;33473;51.640;5.892;2022-09-09T19:01:28;100700;;;20.4;58.0
47710;BME280;33473;51.640;5.892;2022-09-09T19:14:48;100700;;;20.3;59.0
47710;BME280;33473;51.640;5.892;2022-09-09T19:28:07;100700;;;20.3;59.0
47710;BME280;33473;51.640;5.892;2022-09-09T19:41:27;100700;;;20.2;59.0
47710;BME280;33473;51.640;5.892;2022-09-09T19:54:47;100800;;;20.3;60.0
47710;BME280;33473;51.640;5.892;2022-09-09T20:08:07;100800;;;20.3;60.0
47710;BME280;33473;51.640;5.892;2022-09-09T20:21:27;100800;;;20.4;60.0
47710;BME280;33473;51.640;5.892;2022-09-09T20:34:47;100800;;;20.4;60.0
47710;BME280;33473;51.640;5.892;2022-09-09T20:48:07;100800;;;20.5;60.0
47710;BME280;33473;51.640;5.892;2022-09-09T21:01:27;100800;;;20.5;60.0
47710;BME280;33473;51.640;5.892;2022-09-09T21:14:46;100800;;;20.6;60.0
47710;BME280;33473;51.640;5.892;2022-09-09T21:41:26;100800;;;20.7;60.0
47710;BME280;33473;51.640;5.892;2022-09-09T21:54:46;100800;;;20.6;59.0
47710;BME280;33473;51.640;5.892;2022-09-09T22:08:06;100800;;;20.5;59.0
47710;BME280;33473;51.640;5.892;2022-09-09T22:21:26;100800;;;20.4;59.0
47710;BME280;33473;51.640;5.892;2022-09-09T22:34:46;100800;;;20.3;59.0
47710;BME280;33473;51.640;5.892;2022-09-09T23:14:45;100800;;;20.0;59.0
47710;BME280;33473;51.640;5.892;2022-09-09T23:28:05;100800;;;20.0;60.0
